默认 日期 大小 文件数 浏览量 最新下载 xml
08.30磁力链接相关资源由用户搜索指令自动获取,结果来源于网络,本站不存储任何资料,亦不承担任何责任,请于24小时内删除,搜索到8670个磁力,显示前4000条数据,用时25ms。
    {"atkgfs.18.08.30.athena.faris.int[N1C].mp4": 1427787802}
创建时间: 2018-11-01 08:16:29 大小:1.33 GB 文件数量:1 热度:20 最近下载:2025-09-29 00:02:22
    {"RARBG.txt": 30, "shoplyfter.17.08.30.kat.monroe.mp4": 4162216094, "shoplyfter.17.08.30.kat.monroe.nfo": 5181}
创建时间: 2018-11-01 08:25:10 大小:3.88 GB 文件数量:3 热度:48 最近下载:2025-07-29 23:21:02
    {"The_secret_cam 2017-08-30.mp4": 213290248}
创建时间: 2018-11-01 10:46:14 大小:203.41 MB 文件数量:1 热度:10 最近下载:2023-04-04 18:40:06
    {"puretaboo.18.08.30.cadence.lux.bad.samaritans[N1C].mp4": 3472228009}
创建时间: 2018-11-01 15:41:12 大小:3.23 GB 文件数量:1 热度:65 最近下载:2025-10-12 01:45:02
    {"p4l.nfo": 4351, "file_id.diz": 165, "RARBG.com.txt": 34, "RARBG.COM_XXX_BANNER.jpg": 517081, "metart_hamiry_gillian-b_high_0001.jpg": 1858654, "metart_hamiry_gillian-b_high_0002.jpg": 1790356, "metart_hamiry_gillian-b_high_0003.jpg": 1881307, " ...
创建时间: 2018-11-01 15:46:55 大小:197.82 MB 文件数量:124 热度:20 最近下载:2025-04-09 21:03:02
    {"cover.jpg": 52999, "ContactSheet.jpg": 1700945, "isabella016-001.jpg": 3741876, "isabella016-002.jpg": 4876459, "isabella016-003.jpg": 4899830, "isabella016-004.jpg": 2370976, "isabella016-005.jpg": 2953697, "isabella016-006.jpg": 3064924, "isabella016- ...
创建时间: 2018-11-01 16:56:01 大小:470.1 MB 文件数量:135 热度:26 最近下载:2025-07-31 05:39:05
    {"RARBG.txt": 30, "file_id.diz": 692, "ma780saa.nfo": ...
创建时间: 2018-11-01 19:05:03 大小:370.91 MB 文件数量:147 热度:22 最近下载:2025-10-01 12:50:02
    {"ohrly.nfo": 7157, "file_id.diz": 239, "RARBG.com.txt": 34, "coral_1_001.jpg": 1025317, "coral_1_002.jpg": 879408, "coral_1_003.jpg": 894538, "coral_1_004.jpg": 850187, "coral_1_005.jpg": 858198, "coral_1_006.jpg": 904663, "coral_1_007.jpg": 1051700, " ...
创建时间: 2018-11-01 19:18:57 大小:159.32 MB 文件数量:175 热度:19 最近下载:2025-08-02 06:10:05
    {"RARBG.com.txt": 34, "yp-al140830bgwkm.mp4": 316673422, "yp-al140830bgwkm.nfo": 8585}
创建时间: 2018-11-01 19:23:46 大小:302.01 MB 文件数量:3 热度:22 最近下载:2025-08-08 13:55:03
    {"RARBG.txt": 30, "GirlsWay.18.08.30.Casey.Calvert.And.Lena.Paul.A.Close.Reunion.XXX.SD.MP4-KLEENEX.mp4": 435319556}
创建时间: 2018-11-01 19:29:34 大小:415.15 MB 文件数量:2 热度:64 最近下载:2025-08-04 08:48:05
    {"RARBG.nfo": 29, "blackedraw.18.08.30.paige.owens.mp4": 253971677}
创建时间: 2018-11-01 22:11:58 大小:242.21 MB 文件数量:2 热度:52 最近下载:2025-10-16 01:43:02
    {"Anne_joey 2017-08-30.mp4": 93543961}
创建时间: 2018-11-02 01:42:48 大小:89.21 MB 文件数量:1 热度:8 最近下载:2023-04-06 20:20:03
    ... , "Spider-Man Daily Strip 2017-08 (webrip by Lusiphur-DCP).cbz ... Go Go Power Rangers, 2017-08-30 (#02) (digital) (Glorith-HD).cbz ... Lost Dimension - Alpha 01 (of 08) (2017) (3 covers) (digital) (Minutemen ...
创建时间: 2018-11-02 03:52:53 大小:8.4 GB 文件数量:121 热度:17 最近下载:2025-01-04 07:37:02
    {"poster.jpg": 57141, "screens.jpg": 682649, "RARBG.com.txt": 33, "milkingtable.14.08.30.delilah.davis.edging.the.jock.mp4": 703698534}
创建时间: 2018-11-02 04:10:55 大小:671.8 MB 文件数量:4 热度:67 最近下载:2025-09-24 22:03:04
    {"RARBG.com.txt": 34, "bgb.14.08.30.stella.cox.gets.taken.mp4": 2833574138, "bgb.14.08.30.stella.cox.gets.taken.nfo": 6984}
创建时间: 2018-11-02 04:22:10 大小:2.64 GB 文件数量:3 热度:201 最近下载:2025-09-22 22:41:02
    {"RARBG.txt": 30, "oro-bgh.18.08.30.nlpagml.mp4": 5012683054, "oro-bgh.18.08.30.nlpagml.nfo": 7515}
创建时间: 2018-11-02 04:57:51 大小:4.67 GB 文件数量:3 热度:39 最近下载:2025-10-15 06:38:02
    {"VAS-097 08-30-09 Чью волю мы исполняем, согласен ли с нами Бог.mp4": 374634396}
创建时间: 2018-11-02 06:44:53 大小:357.28 MB 文件数量:1 热度:18 最近下载:2025-08-06 12:55:05
    {"RARBG.txt": 30, "HarmonyVision.18.08.30.Sicilia.And.Amirah.Adara.Summer.Of.Lesbian.Love.XXX.SD.MP4-KLEENEX.mp4": 214757576}
创建时间: 2018-11-02 08:09:57 大小:204.81 MB 文件数量:2 热度:31 最近下载:2025-08-23 23:03:03
    {"RARBG.txt": 30, "oro-pbw.18.08.30.snbltgf.mp4": 1879779763, "oro-pbw.18.08.30.snbltgf.nfo": 7493}
创建时间: 2018-11-02 10:03:48 大小:1.75 GB 文件数量:3 热度:56 最近下载:2025-08-22 22:05:02
    {"RARBG.txt": 30, "HogTied.18.08.30.Kendra.Spade.XXX.SD.MP4-KLEENEX.mp4": 354795032}
创建时间: 2018-11-02 11:07:46 大小:338.36 MB 文件数量:2 热度:52 最近下载:2025-09-30 12:52:02